Terminal Aerodrome Forecast
Issued by NWS Twin Cities, MN

Home | Current Version | Previous Version | Text Only | Print | Product List | Glossary Off
Versions: 1 2 3 4 5 6 7 8 9 10 11 12

000
FTUS43 KMPX 311135
TAFEAU
TAF
KEAU 311135Z 3112/0112 07006KT P6SM SKC
     FM311900 10009KT P6SM BKN250
     FM010100 11005KT P6SM OVC150
     FM010600 09003KT P6SM SCT150=

USA.gov is the U.S. government's official web portal to all federal, state and local government web resources and services.